Time;durP1;ratioP1;P1;durP2;ratioP2;P2;SDS_P1;SDS_P2;PMS_P1;PMS_P2;Temp;Humidity;BMP_temperature;BMP_pressure;BME280_temperature;BME280_humidity;BME280_pressure;Samples;Min_cycle;Max_cycle;Signal;HPM_P1;HPM_P2
2023/03/01 00:02:17;;;;;;;5.53;2.95;;;;;;;17.37;42.47;99864.09;5018769;28;20019;-86
2023/03/01 00:04:43;;;;;;;5.28;3.13;;;;;;;17.40;42.61;99879.81;5018097;28;20006;-86
2023/03/01 00:07:08;;;;;;;5.13;3.15;;;;;;;17.40;42.53;99873.66;5018076;28;20018;-86
2023/03/01 00:09:36;;;;;;;5.95;3.05;;;;;;;17.31;42.42;99859.94;5017768;28;20021;-86
2023/03/01 00:12:02;;;;;;;6.05;3.28;;;;;;;17.34;42.58;99869.47;5001925;28;20030;-86
2023/03/01 00:14:27;;;;;;;5.20;2.97;;;;;;;17.32;42.52;99866.03;5016788;28;20011;-86
2023/03/01 00:16:53;;;;;;;5.22;3.00;;;;;;;17.33;42.28;99869.56;5017510;28;20038;-85
2023/03/01 00:19:21;;;;;;;5.57;3.25;;;;;;;17.28;42.27;99872.34;5018506;28;20037;-86
2023/03/01 00:21:48;;;;;;;5.78;2.80;;;;;;;17.31;42.64;99869.59;5018461;28;20026;-86
2023/03/01 00:24:14;;;;;;;4.90;2.80;;;;;;;17.27;42.57;99857.44;5019101;28;20015;-86
2023/03/01 00:26:39;;;;;;;4.88;2.80;;;;;;;17.27;42.54;99868.00;5018339;28;20030;-86
2023/03/01 00:29:05;;;;;;;4.80;2.60;;;;;;;17.30;42.66;99862.63;5018299;28;20042;-86
2023/03/01 00:31:32;;;;;;;5.13;2.85;;;;;;;17.27;42.23;99860.09;5018906;28;20014;-86
2023/03/01 00:34:05;;;;;;;5.72;3.00;;;;;;;17.29;42.62;99866.19;5018244;28;20074;-85
2023/03/01 00:36:36;;;;;;;5.80;2.80;;;;;;;17.26;42.53;99850.47;5018320;28;20013;-86
2023/03/01 00:39:07;;;;;;;5.18;3.00;;;;;;;17.25;42.07;99840.84;5019003;28;20011;-86
2023/03/01 00:51:47;;;;;;;5.60;3.22;;;;;;;17.18;42.43;99843.72;4958932;28;20039;-84
2023/03/01 00:54:12;;;;;;;5.00;2.88;;;;;;;17.18;42.51;99846.34;4960487;28;20032;-85
2023/03/01 00:56:38;;;;;;;4.63;2.65;;;;;;;17.13;42.65;99840.38;4944154;29;20052;-84
2023/03/01 00:59:04;;;;;;;5.78;2.92;;;;;;;17.17;42.39;99844.63;4960307;29;20031;-85
2023/03/01 01:01:31;;;;;;;5.22;2.90;;;;;;;17.14;42.61;99843.91;4959729;29;20016;-84
2023/03/01 01:04:00;;;;;;;4.68;2.72;;;;;;;17.12;42.29;99843.06;4958129;29;20016;-84
2023/03/01 01:06:29;;;;;;;5.20;2.88;;;;;;;17.13;42.21;99850.94;4956708;29;20056;-84
2023/03/01 01:08:55;;;;;;;5.00;2.90;;;;;;;17.12;42.28;99851.88;4960000;28;20016;-85
2023/03/01 01:11:23;;;;;;;6.00;3.42;;;;;;;17.14;42.53;99855.28;4964174;29;20027;-84
2023/03/01 01:13:50;;;;;;;5.28;3.03;;;;;;;17.08;42.46;99841.47;4964174;28;20015;-84
2023/03/01 01:16:17;;;;;;;4.93;2.90;;;;;;;17.07;42.14;99837.13;4963752;28;20018;-85
2023/03/01 01:18:44;;;;;;;4.90;2.80;;;;;;;17.06;42.37;99828.38;4963993;29;20015;-84
2023/03/01 01:21:12;;;;;;;4.22;2.40;;;;;;;17.08;42.28;99837.06;4962957;28;20027;-83
2023/03/01 01:23:39;;;;;;;5.35;2.90;;;;;;;17.05;42.52;99831.94;4961708;29;20037;-84
2023/03/01 01:26:08;;;;;;;5.07;3.20;;;;;;;17.00;42.69;99824.16;4962188;29;20048;-85
2023/03/01 01:28:35;;;;;;;4.20;2.50;;;;;;;17.06;42.50;99838.91;4961770;29;20044;-84
2023/03/01 01:31:00;;;;;;;4.63;2.60;;;;;;;17.02;42.54;99842.53;4962084;29;20036;-85
2023/03/01 01:33:26;;;;;;;4.93;3.20;;;;;;;17.04;42.63;99830.19;4960596;29;20015;-84
2023/03/01 01:35:52;;;;;;;5.20;2.95;;;;;;;17.02;42.51;99821.47;4961656;29;20007;-84
2023/03/01 01:38:17;;;;;;;5.82;2.90;;;;;;;17.03;42.61;99812.66;4961558;29;20042;-84
2023/03/01 01:40:47;;;;;;;5.10;2.70;;;;;;;16.99;42.43;99813.66;4960369;29;20032;-84
2023/03/01 01:43:36;;;;;;;5.03;3.17;;;;;;;16.99;42.50;99813.66;4958688;29;20019;-83
2023/03/01 01:46:29;;;;;;;5.43;2.85;;;;;;;17.02;42.47;99811.81;4960412;29;20077;-84
2023/03/01 01:49:05;;;;;;;5.22;2.72;;;;;;;17.03;42.46;99808.25;4959664;29;20031;-83
2023/03/01 01:51:40;;;;;;;5.40;2.97;;;;;;;16.99;42.07;99806.63;4956574;29;20058;-84
2023/03/01 01:54:27;;;;;;;5.18;3.15;;;;;;;16.92;42.70;99803.34;4957711;29;20696;-83
2023/03/01 01:57:00;;;;;;;4.57;2.70;;;;;;;16.92;42.32;99798.06;4953378;29;20035;-82
2023/03/01 01:59:28;;;;;;;5.03;2.97;;;;;;;16.94;42.31;99797.19;4950641;29;20044;-82
2023/03/01 02:01:54;;;;;;;4.50;2.72;;;;;;;16.88;42.34;99799.13;4951211;29;20042;-83
2023/03/01 02:04:20;;;;;;;4.40;2.55;;;;;;;16.87;42.42;99792.16;4949653;29;20032;-83
2023/03/01 02:06:54;;;;;;;5.32;3.05;;;;;;;16.87;42.52;99797.41;4953240;29;20087;-83
2023/03/01 02:09:21;;;;;;;4.65;2.53;;;;;;;16.87;42.46;99796.53;4953335;29;20078;-83
2023/03/01 02:11:48;;;;;;;4.78;2.60;;;;;;;16.85;42.20;99791.31;4952628;29;20027;-83
2023/03/01 02:14:15;;;;;;;5.13;2.92;;;;;;;16.83;42.45;99793.16;4954648;29;20096;-83
2023/03/01 02:16:42;;;;;;;4.32;2.53;;;;;;;16.86;42.26;99793.03;4953542;29;20079;-83
2023/03/01 02:19:13;;;;;;;4.30;2.40;;;;;;;16.85;42.42;99793.97;4957547;29;20011;-84
2023/03/01 02:21:50;;;;;;;5.43;2.83;;;;;;;16.88;42.41;99793.84;4954154;29;20031;-82
2023/03/01 02:24:21;;;;;;;4.45;2.60;;;;;;;16.85;42.28;99786.06;4950493;29;20063;-83
2023/03/01 02:26:49;;;;;;;4.13;2.50;;;;;;;16.83;42.40;99787.91;4955017;29;20040;-83
2023/03/01 02:29:15;;;;;;;4.93;2.85;;;;;;;16.81;42.39;99779.22;4958302;29;20039;-83
2023/03/01 02:31:41;;;;;;;4.57;2.80;;;;;;;16.80;42.31;99774.00;4958332;29;20091;-83
2023/03/01 02:34:21;;;;;;;5.07;3.03;;;;;;;16.77;42.58;99774.97;4957707;29;20032;-84
2023/03/01 02:36:52;;;;;;;3.90;2.60;;;;;;;16.80;42.46;99774.81;4958173;29;20022;-84
2023/03/01 02:39:23;;;;;;;4.88;2.63;;;;;;;16.82;42.45;99769.50;4957956;29;20026;-84
2023/03/01 02:41:52;;;;;;;3.78;2.53;;;;;;;16.77;42.37;99764.41;4958663;29;20052;-83
2023/03/01 02:44:18;;;;;;;4.22;2.42;;;;;;;16.81;42.54;99760.75;4959194;29;20038;-84
2023/03/01 02:46:50;;;;;;;4.13;2.50;;;;;;;16.81;42.67;99755.47;4959429;29;20004;-84
2023/03/01 02:49:21;;;;;;;4.55;2.65;;;;;;;16.80;42.44;99753.75;4959621;29;20028;-84
2023/03/01 02:52:02;;;;;;;4.03;2.40;;;;;;;16.77;42.62;99752.09;4959429;29;20051;-84
2023/03/01 02:54:30;;;;;;;4.25;2.78;;;;;;;16.79;42.50;99752.03;4959113;29;20488;-84
2023/03/01 02:56:56;;;;;;;4.60;2.88;;;;;;;16.76;42.27;99750.38;4942846;29;20024;-84
2023/03/01 02:59:26;;;;;;;4.38;2.60;;;;;;;16.76;42.41;99753.00;4959290;29;20043;-83
2023/03/01 03:01:52;;;;;;;4.78;2.60;;;;;;;16.73;42.61;99753.13;4958502;29;20038;-83
2023/03/01 03:04:20;;;;;;;4.13;2.35;;;;;;;16.73;42.49;99747.88;4957774;29;20083;-84
2023/03/01 03:06:48;;;;;;;4.43;2.50;;;;;;;16.73;42.79;99754.91;4959038;29;20036;-83
2023/03/01 03:09:14;;;;;;;4.65;2.70;;;;;;;16.74;42.54;99748.72;4958101;29;20031;-83
2023/03/01 03:11:41;;;;;;;4.95;2.53;;;;;;;16.77;42.70;99753.88;4954319;29;20545;-83
2023/03/01 03:14:12;;;;;;;5.18;2.95;;;;;;;16.74;42.83;99748.72;4952007;29;20042;-82
2023/03/01 03:16:43;;;;;;;4.78;2.75;;;;;;;16.74;42.57;99748.72;4950945;29;20032;-84
2023/03/01 03:19:08;;;;;;;4.32;2.40;;;;;;;16.70;42.35;99747.13;4953009;29;20092;-83
2023/03/01 03:21:34;;;;;;;4.15;2.35;;;;;;;16.68;42.17;99748.94;4954337;29;20027;-81
2023/03/01 03:23:59;;;;;;;4.57;2.53;;;;;;;16.69;42.45;99746.25;4951145;29;20056;-82
2023/03/01 03:26:25;;;;;;;4.85;2.30;;;;;;;16.73;42.50;99736.47;4950689;29;20083;-83
2023/03/01 03:28:50;;;;;;;5.43;2.92;;;;;;;16.72;42.62;99729.47;4952565;29;20028;-82
2023/03/01 03:31:16;;;;;;;4.38;2.55;;;;;;;16.72;42.64;99740.00;4951083;29;20056;-82
2023/03/01 03:33:41;;;;;;;4.75;2.67;;;;;;;16.72;42.60;99740.88;4950055;29;20031;-82
2023/03/01 03:36:12;;;;;;;4.70;2.95;;;;;;;16.69;42.64;99740.13;4950351;29;20027;-82
2023/03/01 03:38:39;;;;;;;4.40;2.67;;;;;;;16.66;42.48;99734.97;4952469;29;20075;-82
2023/03/01 03:41:08;;;;;;;5.05;3.17;;;;;;;16.59;42.39;99732.59;4952904;29;20020;-83
2023/03/01 03:43:36;;;;;;;4.25;2.70;;;;;;;16.64;42.62;99733.28;4953072;29;20107;-83
2023/03/01 03:46:06;;;;;;;4.93;2.88;;;;;;;16.63;42.39;99736.84;4953033;29;20031;-83
2023/03/01 03:48:40;;;;;;;4.85;2.53;;;;;;;16.60;42.84;99736.94;4952569;29;20093;-83
2023/03/01 03:51:09;;;;;;;5.00;2.72;;;;;;;16.63;42.46;99736.84;4946942;29;20400;-83
2023/03/01 03:53:46;;;;;;;4.68;2.80;;;;;;;16.64;42.90;99732.41;4953737;29;20027;-83
2023/03/01 03:56:13;;;;;;;4.20;2.80;;;;;;;16.56;42.70;99730.06;4960046;29;20051;-82
2023/03/01 03:58:42;;;;;;;4.38;2.83;;;;;;;16.61;42.60;99722.84;4972684;28;20015;-83
2023/03/01 04:01:21;;;;;;;4.70;2.80;;;;;;;16.64;42.48;99728.00;4973993;29;20035;-83
2023/03/01 04:04:03;;;;;;;4.82;3.03;;;;;;;16.61;42.67;99722.00;4975557;28;20023;-83
2023/03/01 04:06:30;;;;;;;5.07;3.13;;;;;;;16.62;42.56;99728.97;4972709;29;20031;-83
2023/03/01 04:09:30;;;;;;;5.18;2.88;;;;;;;16.62;42.60;99728.97;4974157;29;20464;-83
2023/03/01 04:12:55;;;;;;;4.82;2.83;;;;;;;16.58;42.67;99722.97;4974184;29;20047;-83
2023/03/01 04:15:36;;;;;;;5.22;2.67;;;;;;;16.58;42.41;99722.97;4974183;29;20550;-83
2023/03/01 04:18:47;;;;;;;5.13;2.95;;;;;;;16.52;42.63;99717.94;4961050;29;20026;-83
2023/03/01 04:21:50;;;;;;;5.50;3.40;;;;;;;16.53;42.79;99719.66;4933717;29;20039;-82
2023/03/01 04:24:40;;;;;;;4.57;3.00;;;;;;;16.53;42.58;99719.66;4920708;29;20036;-82
2023/03/01 04:27:11;;;;;;;4.30;2.72;;;;;;;16.54;42.52;99716.09;4934176;29;20050;-83
2023/03/01 04:30:19;;;;;;;5.20;3.05;;;;;;;16.55;42.32;99714.34;4904725;29;20052;-84
2023/03/01 04:32:47;;;;;;;4.70;2.92;;;;;;;16.50;42.73;99710.09;4935156;29;20036;-83
2023/03/01 04:35:12;;;;;;;4.43;2.85;;;;;;;16.52;42.49;99707.41;4917129;29;20048;-83
2023/03/01 04:37:38;;;;;;;4.65;2.72;;;;;;;16.56;42.79;99706.34;4933579;29;20107;-83
2023/03/01 04:40:25;;;;;;;5.55;3.17;;;;;;;16.50;42.57;99703.94;4931817;29;20052;-83
2023/03/01 04:42:54;;;;;;;4.20;2.70;;;;;;;16.50;42.42;99709.22;4877550;29;20050;-83
2023/03/01 04:45:36;;;;;;;4.97;3.20;;;;;;;16.48;42.33;99705.78;4877004;29;20045;-83
2023/03/01 04:48:05;;;;;;;4.30;3.00;;;;;;;16.49;42.57;99703.09;4866782;29;20105;-83
2023/03/01 04:51:01;;;;;;;4.53;2.78;;;;;;;16.48;42.75;99708.44;4869846;29;20105;-84
2023/03/01 04:53:30;;;;;;;4.90;3.10;;;;;;;16.47;42.75;99701.44;4868231;29;20076;-83
2023/03/01 04:56:22;;;;;;;6.47;2.78;;;;;;;16.48;42.46;99700.53;4882935;29;20018;-82
2023/03/01 04:59:22;;;;;;;4.88;3.25;;;;;;;16.44;42.45;99705.06;4885337;29;20065;-84
2023/03/01 05:02:26;;;;;;;4.15;2.70;;;;;;;16.44;42.63;99712.09;4884363;29;20044;-83
2023/03/01 05:04:57;;;;;;;4.88;2.97;;;;;;;16.41;42.66;99714.84;4883275;29;20045;-83
2023/03/01 05:07:26;;;;;;;4.40;2.92;;;;;;;16.38;42.56;99706.13;4875950;29;20036;-82
2023/03/01 05:09:56;;;;;;;5.53;3.10;;;;;;;16.41;42.37;99714.84;4876292;29;20029;-82
2023/03/01 05:12:22;;;;;;;4.65;2.88;;;;;;;16.39;42.41;99712.25;4876097;29;20105;-82
2023/03/01 05:14:51;;;;;;;4.90;3.00;;;;;;;16.38;42.63;99716.66;4931515;29;20536;-83
2023/03/01 05:17:31;;;;;;;4.50;2.95;;;;;;;16.37;42.68;99704.41;4934586;29;20032;-83
2023/03/01 05:20:26;;;;;;;4.90;2.92;;;;;;;16.38;42.66;99700.84;4937039;29;20030;-83
2023/03/01 05:31:09;;;;;;;4.93;2.92;;;;;;;16.34;42.43;99694.00;4941512;29;20567;-83
2023/03/01 05:34:26;;;;;;;4.85;3.10;;;;;;;16.30;42.66;99692.41;4939933;29;20508;-83
2023/03/01 05:38:14;;;;;;;4.88;3.03;;;;;;;16.32;42.58;99685.28;4900965;29;20116;-84
2023/03/01 05:45:03;;;;;;;4.70;2.72;;;;;;;16.33;42.70;99696.69;4867915;29;20044;-84
2023/03/01 05:48:09;;;;;;;4.82;3.13;;;;;;;16.31;42.52;99695.88;4862505;29;20530;-83
2023/03/01 05:51:22;;;;;;;5.30;3.13;;;;;;;16.30;42.51;99692.41;4864832;29;20045;-82
2023/03/01 05:53:56;;;;;;;4.85;3.25;;;;;;;16.31;42.67;99698.50;4891804;29;20053;-83
2023/03/01 05:56:26;;;;;;;4.20;2.70;;;;;;;16.31;42.54;99703.78;4901187;29;20052;-83
2023/03/01 05:58:53;;;;;;;5.00;2.97;;;;;;;16.30;42.59;99702.94;4916452;29;20033;-83
2023/03/01 06:01:20;;;;;;;4.25;2.72;;;;;;;16.29;42.44;99701.22;4914129;29;20040;-83
2023/03/01 06:03:52;;;;;;;5.18;3.28;;;;;;;16.30;42.47;99696.78;4884306;29;20036;-83
2023/03/01 06:06:26;;;;;;;6.53;3.30;;;;;;;16.25;42.40;99694.34;4898345;29;20064;-83
2023/03/01 06:08:57;;;;;;;5.55;3.05;;;;;;;16.27;42.64;99692.50;4952783;29;20052;-83
2023/03/01 06:12:00;;;;;;;5.63;3.22;;;;;;;16.25;42.65;99689.09;4925547;29;20045;-83
2023/03/01 06:14:35;;;;;;;5.35;2.90;;;;;;;16.29;42.72;99689.81;4979000;28;20434;-83
2023/03/01 06:17:00;;;;;;;4.70;2.83;;;;;;;16.24;42.89;99687.38;4976121;28;20027;-82
2023/03/01 06:19:25;;;;;;;5.05;2.90;;;;;;;16.24;42.64;99692.63;4974937;29;20059;-83
2023/03/01 06:21:52;;;;;;;4.75;2.92;;;;;;;16.23;42.63;99693.56;4975689;29;20035;-84
2023/03/01 06:24:28;;;;;;;4.47;2.92;;;;;;;16.21;42.53;99693.59;4975410;28;20063;-83
2023/03/01 06:27:00;;;;;;;4.95;3.10;;;;;;;16.19;42.47;99699.84;4975103;28;20046;-84
2023/03/01 06:30:11;;;;;;;4.28;3.05;;;;;;;16.18;42.58;99700.75;4976459;29;20042;-83
2023/03/01 06:33:00;;;;;;;4.35;2.92;;;;;;;16.15;42.66;99698.22;4962965;29;20042;-80
2023/03/01 06:35:30;;;;;;;4.40;2.53;;;;;;;16.16;42.60;99699.94;4966022;29;20035;-80
2023/03/01 06:37:57;;;;;;;5.22;2.88;;;;;;;16.15;42.63;99692.97;4967137;29;20398;-82
2023/03/01 06:40:23;;;;;;;4.70;3.03;;;;;;;16.15;42.68;99693.84;4965948;29;20038;-82
2023/03/01 06:42:55;;;;;;;4.80;2.88;;;;;;;16.13;42.47;99686.91;4961868;28;20479;-82
2023/03/01 06:45:21;;;;;;;4.57;2.95;;;;;;;16.16;42.46;99694.66;4968517;28;20081;-82
2023/03/01 06:47:47;;;;;;;4.85;2.95;;;;;;;16.14;42.44;99691.25;4963468;28;20047;-82
2023/03/01 06:50:14;;;;;;;4.50;2.85;;;;;;;16.12;42.65;99693.09;5100254;23;20508;-80
2023/03/01 06:52:39;;;;;;;5.05;3.10;;;;;;;16.13;42.50;99694.81;4945539;29;20031;-82
2023/03/01 06:55:05;;;;;;;5.15;3.30;;;;;;;16.16;42.45;99699.94;4961918;29;20105;-81
2023/03/01 06:57:31;;;;;;;5.15;3.03;;;;;;;16.15;42.82;99692.97;4958853;29;20039;-81
2023/03/01 06:59:57;;;;;;;5.03;3.03;;;;;;;16.13;42.46;99700.06;4958095;29;20487;-77
2023/03/01 07:02:22;;;;;;;4.45;2.95;;;;;;;16.14;42.39;99699.16;4955862;29;20108;-79
2023/03/01 07:04:52;;;;;;;4.88;2.70;;;;;;;16.09;42.44;99700.16;4955807;29;20031;-80
2023/03/01 07:07:18;;;;;;;4.88;3.13;;;;;;;16.10;42.72;99701.91;4955134;28;20440;-79
2023/03/01 07:09:45;;;;;;;4.47;2.75;;;;;;;16.10;42.92;99704.53;4955996;29;20118;-78
2023/03/01 07:12:10;;;;;;;5.03;2.83;;;;;;;16.13;42.61;99697.44;4938914;29;20030;-76
2023/03/01 07:14:35;;;;;;;5.07;3.00;;;;;;;16.15;42.78;99703.50;4954392;29;20042;-80
2023/03/01 07:17:01;;;;;;;6.05;3.38;;;;;;;16.15;42.76;99708.75;4956326;29;20043;-80
2023/03/01 07:19:26;;;;;;;4.70;2.78;;;;;;;16.17;42.89;99706.94;4956233;29;20023;-81
2023/03/01 07:21:52;;;;;;;5.93;4.07;;;;;;;16.13;43.11;99700.06;4956265;29;20082;-80
2023/03/01 07:24:17;;;;;;;5.80;3.60;;;;;;;16.14;43.20;99704.41;4957592;29;20081;-80
2023/03/01 07:26:43;;;;;;;8.68;3.83;;;;;;;16.16;42.96;99705.22;4957823;29;20419;-81
2023/03/01 07:29:09;;;;;;;8.43;3.67;;;;;;;16.17;43.19;99706.94;4959118;29;20487;-82
2023/03/01 07:31:36;;;;;;;7.63;4.22;;;;;;;16.15;43.05;99703.50;4958718;29;20054;-81
2023/03/01 07:34:02;;;;;;;8.32;3.90;;;;;;;16.16;42.82;99710.47;4958567;29;20095;-81
2023/03/01 07:36:27;;;;;;;6.28;3.78;;;;;;;16.13;43.00;99710.59;4959169;29;20531;-81
2023/03/01 07:38:53;;;;;;;8.05;4.53;;;;;;;16.16;42.92;99710.47;4942295;29;20077;-81
2023/03/01 07:41:18;;;;;;;7.80;4.43;;;;;;;16.13;42.82;99710.59;4959847;29;20027;-82
2023/03/01 07:43:43;;;;;;;7.22;3.92;;;;;;;16.14;42.93;99717.56;4959924;29;20027;-82
2023/03/01 07:46:09;;;;;;;8.05;4.07;;;;;;;16.15;42.83;99719.28;4942196;29;20082;-82
2023/03/01 07:48:34;;;;;;;9.07;4.30;;;;;;;16.13;42.89;99721.13;4959026;29;20037;-82
2023/03/01 07:51:01;;;;;;;7.00;3.88;;;;;;;16.13;43.12;99721.97;4957564;28;20061;-81
2023/03/01 07:53:27;;;;;;;7.88;4.22;;;;;;;16.13;42.90;99724.59;4959154;29;20031;-82
2023/03/01 07:56:06;;;;;;;6.18;3.90;;;;;;;16.12;43.01;99724.69;4963089;28;20026;-81
2023/03/01 07:58:35;;;;;;;8.60;4.43;;;;;;;16.10;43.04;99727.38;4977263;28;20394;-82
2023/03/01 08:01:02;;;;;;;8.75;4.60;;;;;;;16.11;42.92;99726.44;4975393;28;20030;-81
2023/03/01 08:03:28;;;;;;;6.35;3.92;;;;;;;16.12;42.79;99729.94;4975570;28;20041;-80
2023/03/01 08:05:54;;;;;;;6.05;3.80;;;;;;;16.12;42.93;99740.47;4977102;28;20031;-81
2023/03/01 08:08:19;;;;;;;6.78;4.57;;;;;;;16.09;42.88;99731.75;4977061;28;20058;-81
2023/03/01 08:10:45;;;;;;;7.30;4.15;;;;;;;16.09;42.87;99731.75;4976580;28;20049;-82
2023/03/01 08:13:10;;;;;;;6.20;4.00;;;;;;;16.13;42.89;99726.41;4976408;28;20023;-81
2023/03/01 08:15:35;;;;;;;7.55;4.32;;;;;;;16.15;42.84;99727.19;4977756;28;20429;-82
2023/03/01 08:18:01;;;;;;;6.93;3.95;;;;;;;16.14;42.85;99722.84;4977693;28;20034;-81
2023/03/01 08:20:26;;;;;;;8.02;4.53;;;;;;;16.14;42.76;99723.72;4961188;28;20027;-82
2023/03/01 08:22:52;;;;;;;6.28;3.90;;;;;;;16.12;42.79;99719.41;4961264;28;20534;-82
2023/03/01 08:25:17;;;;;;;7.43;4.50;;;;;;;16.12;42.92;99717.63;4961056;28;20530;-82
2023/03/01 08:27:43;;;;;;;7.57;4.25;;;;;;;16.14;42.54;99717.56;4978109;28;20117;-82
2023/03/01 08:30:10;;;;;;;8.35;4.20;;;;;;;16.13;42.91;99715.88;4980009;28;20043;-82
2023/03/01 08:32:38;;;;;;;7.10;4.00;;;;;;;16.14;42.74;99717.56;4979971;28;20546;-82
2023/03/01 08:35:04;;;;;;;6.03;3.95;;;;;;;16.12;42.62;99717.63;4978026;28;20027;-81
2023/03/01 08:37:30;;;;;;;7.35;4.05;;;;;;;16.11;42.73;99713.28;4960917;28;20030;-82
2023/03/01 08:39:56;;;;;;;7.40;4.10;;;;;;;16.10;42.62;99720.34;4977988;28;20052;-82
2023/03/01 08:42:21;;;;;;;6.85;4.47;;;;;;;16.10;42.52;99716.84;4978442;28;20035;-82
2023/03/01 08:44:47;;;;;;;7.05;3.95;;;;;;;16.10;42.81;99712.44;4978139;28;20031;-80
2023/03/01 08:47:12;;;;;;;7.78;4.50;;;;;;;16.10;42.69;99709.81;4981767;28;20027;-81
2023/03/01 08:49:38;;;;;;;6.38;4.18;;;;;;;16.13;42.64;99705.34;4980896;28;20055;-82
2023/03/01 08:52:03;;;;;;;6.45;4.20;;;;;;;16.12;42.61;99703.63;4982836;28;20037;-83
2023/03/01 08:54:29;;;;;;;6.70;4.10;;;;;;;16.13;42.48;99703.53;4983757;28;20042;-82
2023/03/01 08:56:54;;;;;;;8.60;4.05;;;;;;;16.12;42.46;99698.34;4968767;28;20039;-82
2023/03/01 08:59:20;;;;;;;6.32;4.03;;;;;;;16.12;42.73;99703.63;4960605;29;20031;-82
2023/03/01 09:01:45;;;;;;;7.82;4.78;;;;;;;16.12;42.35;99703.63;4959296;29;20029;-82
2023/03/01 09:04:12;;;;;;;7.30;4.20;;;;;;;16.10;42.67;99706.31;4960190;29;20054;-81
2023/03/01 09:06:38;;;;;;;5.80;3.88;;;;;;;16.12;42.72;99706.25;4959572;29;20058;-81
2023/03/01 09:09:05;;;;;;;9.55;4.68;;;;;;;16.12;42.56;99708.88;4958338;29;20039;-81
2023/03/01 09:11:30;;;;;;;6.65;4.07;;;;;;;16.13;42.61;99706.19;4958314;29;20078;-81
2023/03/01 09:13:56;;;;;;;7.13;4.57;;;;;;;16.13;42.67;99707.97;4957706;29;20031;-82
2023/03/01 09:16:22;;;;;;;7.32;4.78;;;;;;;16.14;42.22;99699.16;4957474;29;20439;-82
2023/03/01 09:18:52;;;;;;;6.57;3.92;;;;;;;16.12;42.26;99698.34;4959333;29;20484;-82
2023/03/01 09:21:20;;;;;;;6.38;4.00;;;;;;;16.12;42.64;99693.94;4960610;29;20395;-82
2023/03/01 09:23:47;;;;;;;7.07;4.50;;;;;;;16.14;42.46;99696.50;4960041;29;20078;-82
2023/03/01 09:26:19;;;;;;;7.30;4.45;;;;;;;16.13;42.34;99695.66;4959558;29;20027;-82
2023/03/01 09:28:45;;;;;;;5.72;3.80;;;;;;;16.10;42.51;99694.00;4958787;29;20027;-82
2023/03/01 09:31:12;;;;;;;6.72;4.18;;;;;;;16.13;42.26;99686.91;4961146;28;20034;-82
2023/03/01 09:33:39;;;;;;;6.90;4.32;;;;;;;16.13;42.32;99689.53;4962442;29;20032;-82
2023/03/01 09:36:07;;;;;;;7.05;3.90;;;;;;;16.12;42.16;99666.75;4963589;29;20118;-82
2023/03/01 09:38:33;;;;;;;7.00;4.00;;;;;;;16.09;42.57;99671.22;4964401;29;20078;-81
2023/03/01 09:41:00;;;;;;;6.72;4.38;;;;;;;16.10;42.37;99662.44;4946204;29;20023;-82
2023/03/01 09:43:48;;;;;;;7.40;4.30;;;;;;;16.15;42.21;99661.38;4962847;29;20082;-82
2023/03/01 09:46:18;;;;;;;6.25;4.20;;;;;;;16.12;42.25;99650.97;4961381;29;20023;-82
2023/03/01 09:49:10;;;;;;;6.57;4.00;;;;;;;16.13;42.42;99658.78;4961947;29;20046;-83
2023/03/01 09:51:36;;;;;;;5.05;3.70;;;;;;;16.15;42.03;99650.84;4943088;29;20051;-81
2023/03/01 09:54:04;;;;;;;6.63;4.30;;;;;;;16.14;42.28;99646.50;4960956;29;20077;-82
2023/03/01 09:56:33;;;;;;;7.45;4.20;;;;;;;16.12;42.26;99637.81;4971104;28;20027;-82
2023/03/01 09:59:04;;;;;;;6.20;4.03;;;;;;;16.13;42.47;99639.53;4980260;28;20510;-81
2023/03/01 10:01:36;;;;;;;5.38;3.92;;;;;;;16.15;42.14;99630.66;4980761;28;20034;-81
2023/03/01 10:04:01;;;;;;;6.88;3.83;;;;;;;16.13;42.16;99631.63;4980594;28;20113;-81
2023/03/01 10:06:27;;;;;;;5.00;3.35;;;;;;;16.10;42.11;99628.19;4980670;28;20031;-82
2023/03/01 10:09:05;;;;;;;6.47;3.60;;;;;;;16.14;42.02;99625.44;4980557;28;20042;-82
2023/03/01 10:11:35;;;;;;;6.03;3.80;;;;;;;16.12;42.12;99619.38;4980397;28;20035;-82
2023/03/01 10:14:15;;;;;;;6.25;4.00;;;;;;;16.12;41.86;99619.38;4978892;28;20069;-81
2023/03/01 10:16:58;;;;;;;5.20;3.35;;;;;;;16.12;42.08;99624.66;4978127;28;20105;-81
2023/03/01 10:19:32;;;;;;;5.45;3.47;;;;;;;16.15;42.13;99619.25;4978057;28;20034;-81
2023/03/01 10:22:05;;;;;;;6.63;4.10;;;;;;;16.12;42.00;99620.22;4978170;28;20123;-81
2023/03/01 10:24:35;;;;;;;6.50;3.10;;;;;;;16.17;42.18;99620.06;4978624;28;20455;-82
2023/03/01 10:27:12;;;;;;;5.82;4.03;;;;;;;16.13;41.87;99615.81;4978491;28;20257;-81
2023/03/01 10:29:51;;;;;;;5.80;3.70;;;;;;;16.15;41.97;99617.47;4978743;28;20058;-82
2023/03/01 10:32:18;;;;;;;5.20;3.35;;;;;;;16.17;42.02;99606.91;4978552;28;20114;-81
2023/03/01 10:34:43;;;;;;;5.22;3.05;;;;;;;16.14;42.12;99607.00;4978270;28;20038;-82
2023/03/01 10:37:21;;;;;;;5.18;3.45;;;;;;;16.14;42.10;99602.63;4978742;28;20038;-81
2023/03/01 10:40:08;;;;;;;5.32;3.80;;;;;;;16.16;42.04;99607.78;4979527;28;20035;-82
2023/03/01 10:42:38;;;;;;;5.20;3.08;;;;;;;16.17;42.24;99597.22;4979257;28;20031;-82
2023/03/01 10:45:36;;;;;;;5.68;3.30;;;;;;;16.17;42.12;99601.63;4962562;28;20035;-82
2023/03/01 10:48:17;;;;;;;4.85;3.55;;;;;;;16.18;41.99;99598.09;4979499;28;20043;-82
2023/03/01 10:50:49;;;;;;;5.32;3.40;;;;;;;16.18;41.97;99588.38;4979279;28;20074;-82
2023/03/01 10:53:34;;;;;;;5.00;3.25;;;;;;;16.19;42.17;99587.50;4980379;28;20039;-81
2023/03/01 10:56:09;;;;;;;5.23;3.33;;;;;;;16.19;42.18;99573.47;4973687;28;20546;-81
2023/03/01 10:58:37;;;;;;;4.97;3.22;;;;;;;16.18;42.31;99580.50;4959400;29;20038;-82
2023/03/01 11:01:05;;;;;;;5.38;3.22;;;;;;;16.21;42.07;99568.97;4960194;29;20031;-82
2023/03/01 11:03:38;;;;;;;5.70;3.30;;;;;;;16.20;42.03;99569.91;4960872;29;20041;-81
2023/03/01 11:06:13;;;;;;;5.07;3.08;;;;;;;16.21;42.08;99571.63;4962031;29;20031;-82
2023/03/01 11:08:46;;;;;;;5.20;3.17;;;;;;;16.22;41.90;99568.94;4960281;29;20113;-82
2023/03/01 11:11:19;;;;;;;4.40;2.80;;;;;;;16.22;42.31;99563.66;4963397;29;20038;-82
2023/03/01 11:13:57;;;;;;;6.03;3.30;;;;;;;16.21;41.79;99558.44;4960743;29;20070;-82
2023/03/01 11:16:36;;;;;;;5.53;3.30;;;;;;;16.21;42.08;99558.44;4960732;29;20475;-82
2023/03/01 11:19:17;;;;;;;4.68;3.25;;;;;;;16.23;42.00;99548.75;4941807;29;20407;-81
2023/03/01 11:21:59;;;;;;;4.40;2.88;;;;;;;16.23;42.10;99543.47;4960239;29;20027;-82
2023/03/01 11:24:42;;;;;;;5.45;2.90;;;;;;;16.24;42.02;99542.56;4959253;29;20395;-81
2023/03/01 11:27:19;;;;;;;5.40;3.30;;;;;;;16.24;41.91;99545.19;4957536;29;20542;-82
2023/03/01 11:29:50;;;;;;;5.18;3.22;;;;;;;16.24;41.88;99532.84;4958944;29;20054;-81
2023/03/01 11:32:18;;;;;;;5.25;3.20;;;;;;;16.25;41.97;99525.81;4946771;29;20114;-81
2023/03/01 11:34:56;;;;;;;5.43;3.15;;;;;;;16.26;41.92;99524.91;4940064;29;20032;-82
2023/03/01 11:37:32;;;;;;;4.95;2.95;;;;;;;16.25;41.98;99525.81;4944340;29;20102;-82
2023/03/01 11:40:04;;;;;;;5.82;3.28;;;;;;;16.26;42.26;99521.44;4942242;29;20031;-82
2023/03/01 11:42:50;;;;;;;4.65;2.80;;;;;;;16.28;42.06;99514.31;4946203;29;20504;-83
2023/03/01 11:45:16;;;;;;;5.75;3.22;;;;;;;16.28;41.96;99514.31;4944708;29;20480;-82
2023/03/01 11:48:13;;;;;;;4.55;2.88;;;;;;;16.27;41.71;99502.91;4921411;29;20043;-81
2023/03/01 11:50:39;;;;;;;;;;;;;;;16.28;41.90;99499.38;4878881;29;20049;-81
2023/03/01 11:53:22;;;;;;;4.60;3.00;;;;;;;16.28;41.89;99498.53;4878046;29;19916;-81
2023/03/01 11:55:50;;;;;;;5.38;3.10;;;;;;;16.29;41.76;99494.97;4886026;29;20036;-81
2023/03/01 11:58:47;;;;;;;4.75;2.95;;;;;;;16.30;41.56;99487.00;4916103;29;20091;-81
2023/03/01 12:01:30;;;;;;;;;;;;;;;16.29;41.72;99477.41;4916329;29;20040;-81
2023/03/01 12:04:14;;;;;;;4.88;2.78;;;;;;;16.29;41.84;99469.50;4916543;29;19921;-80
2023/03/01 12:06:42;;;;;;;4.68;2.63;;;;;;;16.31;41.90;99461.50;4915724;29;20393;-81
2023/03/01 12:09:35;;;;;;;7.10;3.38;;;;;;;16.32;42.08;99458.81;4915461;29;20055;-80
2023/03/01 12:12:30;;;;;;;5.47;3.38;;;;;;;16.32;42.07;99453.56;4915164;29;20040;-80
2023/03/01 12:14:58;;;;;;;5.85;3.63;;;;;;;16.32;42.01;99457.97;4915329;29;20527;-80
2023/03/01 12:17:29;;;;;;;6.45;3.58;;;;;;;16.33;42.03;99452.63;4915614;29;20039;-80
2023/03/01 12:20:20;;;;;;;6.05;3.33;;;;;;;16.34;41.97;99451.72;4915581;29;20027;-80
2023/03/01 12:23:33;;;;;;;5.22;3.38;;;;;;;16.35;41.94;99442.91;4916015;29;20112;-81